Corlu, Turkey

5:04 AM EET on December 29, 2014 (GMT +0200)
Corlu Air Base | Change Station
CLOSE
Current Station
Airport
Location: Corlu,
Elevation: 568 ft
Nearby Weather Stations

Elev 568 ft 41.14 °N, 27.92 °E | Updated 14 minutes ago

Light Rain Showers
Light Showers Rain
52 °F
Feels Like 52 °F
N
17
Wind Variable Wind from South

Today
High -- | Low -- °F
--% Chance of Precip.
Yesterday
High -- | Low -- °F
Precip. -- in
7:33 AM 4:47 PM
First Quarter, 54% visible
Pressure 29.53 in
Visibility 6.2 miles
Clouds Scattered Clouds 3300 ft
Mostly Cloudy 8000 ft
Dew Point 46 °F
Humidity 82%
Rainfall 0.00 in
Snow Depth Not available.
UV 0 out of 12
Pollen Not available.
Air Quality Not available.
Flu Activity Not available.
METAR LTBU 290250Z 17015KT 9999 -SHRA SCT033 BKN080 11/08 Q1000

More Conditions Fewer Conditions

Pressure 29.53 in
Visibility 6.2 miles
Clouds Scattered Clouds 3300 ft
Mostly Cloudy 8000 ft
Dew Point 46 °F
Humidity 82%
Rainfall 0.00 in
Snow Depth Not available.
UV 0 out of 12
Pollen Not available.
Air Quality Not available.
Flu Activity Not available.
METAR LTBU 290250Z 17015KT 9999 -SHRA SCT033 BKN080 11/08 Q1000

More Conditions Fewer Conditions

10-Day Weather Forecast

Almanac

Astronomy

Dec. 29, 2014 Rise Set
Actual Time
Civil Twilight
Nautical Twilight
Astronomical Twilight
Moon
Length of Visible Light
Length of Day
Tomorrow will be .
, % of the Moon is Illuminated

Today's Extremes

Country Highs Country Lows

Community

WunderPhotos

Upload Photos

1,781,508 photos uploaded!

WunderBlogs® & News

Nearby

Air Quality

  Air Quality AQ Index Pollutant
Not available.

Snow Depth

Station Depth Elevation

Earthquake Activity

City Distance Mag. Time & Date
Minimum magnitude displayed is 2.5.

Coastal Water Temperatures

Place Temperature

Nearby Weather Stations